AUA680L EPKK-LOWW
Flight info
| Callsign | AUA680L |
|---|---|
| Flight time | 0h 37m |
| Altitude | 28000 |
| Route | BABKO DCT VADEX DCT BABNI DCT TUTPI/N0364F240 P182 REKLU REKLU3W |
| Aircraft | E195/M-SDE3GILORVW/S |
Departure
| Time | 2026-04-30 12:57 |
|---|---|
| Airport | Kraków John Paul II International Airport (EPKK) |
Arrival
| Time | 2026-04-30 13:35 |
|---|---|
| Airport | Vienna International Airport (LOWW) |
| Time | Latitude | Longitude | Altitude | Speed | Heading |
|---|---|---|---|---|---|
| 2026-04-30 12:12 | 50.07481 | 19.80142 | 789 ft | 0 kts | 167° |
| 2026-04-30 12:51 | 50.07448 | 19.80153 | 789 ft | 9 kts | 167° |
| 2026-04-30 12:51 | 50.07429 | 19.80211 | 789 ft | 9 kts | 90° |
| 2026-04-30 12:52 | 50.07453 | 19.80352 | 789 ft | 16 kts | 56° |
| 2026-04-30 12:52 | 50.07557 | 19.80418 | 789 ft | 17 kts | 13° |
| 2026-04-30 12:52 | 50.07674 | 19.80394 | 789 ft | 18 kts | 348° |
| 2026-04-30 12:52 | 50.07798 | 19.80352 | 789 ft | 19 kts | 347° |
| 2026-04-30 12:53 | 50.07839 | 19.80338 | 789 ft | 0 kts | 347° |
| 2026-04-30 12:55 | 50.07839 | 19.80337 | 789 ft | 1 kts | 347° |
| 2026-04-30 12:55 | 50.07874 | 19.80325 | 789 ft | 10 kts | 347° |
| 2026-04-30 12:56 | 50.07964 | 19.80294 | 788 ft | 15 kts | 347° |
| 2026-04-30 12:56 | 50.08011 | 19.80183 | 789 ft | 14 kts | 257° |
| 2026-04-30 12:56 | 50.08008 | 19.80159 | 789 ft | 0 kts | 258° |
| 2026-04-30 12:56 | 50.08007 | 19.80154 | 789 ft | 1 kts | 258° |
| 2026-04-30 12:57 | 50.07979 | 19.79944 | 788 ft | 53 kts | 258° |
| 2026-04-30 12:57 | 50.07852 | 19.79029 | 790 ft | 118 kts | 257° |
| 2026-04-30 12:57 | 50.07636 | 19.77517 | 930 ft | 159 kts | 258° |
| 2026-04-30 12:57 | 50.07347 | 19.75748 | 1539 ft | 180 kts | 255° |
| 2026-04-30 12:58 | 50.07002 | 19.73889 | 2441 ft | 180 kts | 257° |
| 2026-04-30 12:58 | 50.06698 | 19.71880 | 2933 ft | 204 kts | 262° |
| 2026-04-30 12:58 | 50.06485 | 19.69555 | 3416 ft | 230 kts | 265° |
| 2026-04-30 12:58 | 50.06184 | 19.67077 | 4301 ft | 239 kts | 254° |
| 2026-04-30 12:59 | 50.05343 | 19.64712 | 4832 ft | 263 kts | 233° |
| 2026-04-30 12:59 | 50.03871 | 19.62942 | 5512 ft | 276 kts | 205° |
| 2026-04-30 12:59 | 50.02042 | 19.62010 | 6345 ft | 278 kts | 195° |
| 2026-04-30 12:59 | 50.00152 | 19.61274 | 7053 ft | 281 kts | 194° |
| 2026-04-30 13:00 | 49.98268 | 19.60507 | 7708 ft | 285 kts | 195° |
| 2026-04-30 13:00 | 49.96301 | 19.59736 | 8344 ft | 290 kts | 193° |
| 2026-04-30 13:00 | 49.94355 | 19.58994 | 8909 ft | 294 kts | 193° |
| 2026-04-30 13:00 | 49.92349 | 19.58216 | 9541 ft | 300 kts | 193° |
| 2026-04-30 13:01 | 49.90310 | 19.57434 | 10221 ft | 304 kts | 193° |
| 2026-04-30 13:01 | 49.88218 | 19.56635 | 10657 ft | 318 kts | 193° |
| 2026-04-30 13:01 | 49.86012 | 19.55815 | 11033 ft | 332 kts | 192° |
| 2026-04-30 13:01 | 49.83744 | 19.54976 | 11656 ft | 336 kts | 192° |
| 2026-04-30 13:02 | 49.81458 | 19.54115 | 12283 ft | 340 kts | 192° |
| 2026-04-30 13:02 | 49.79148 | 19.53254 | 12924 ft | 345 kts | 192° |
| 2026-04-30 13:02 | 49.76799 | 19.52387 | 13578 ft | 349 kts | 192° |
| 2026-04-30 13:02 | 49.74417 | 19.51520 | 14192 ft | 354 kts | 192° |
| 2026-04-30 13:03 | 49.72009 | 19.50653 | 14782 ft | 357 kts | 191° |
| 2026-04-30 13:03 | 49.69570 | 19.49785 | 15340 ft | 361 kts | 191° |
| 2026-04-30 13:03 | 49.67106 | 19.48922 | 15906 ft | 365 kts | 191° |
| 2026-04-30 13:03 | 49.64614 | 19.48055 | 16505 ft | 369 kts | 191° |
| 2026-04-30 13:04 | 49.62102 | 19.47159 | 17090 ft | 373 kts | 195° |
| 2026-04-30 13:04 | 49.59773 | 19.45362 | 17616 ft | 378 kts | 220° |
| 2026-04-30 13:04 | 49.57914 | 19.42497 | 18271 ft | 379 kts | 230° |
| 2026-04-30 13:04 | 49.56198 | 19.39450 | 18823 ft | 384 kts | 231° |
| 2026-04-30 13:05 | 49.54408 | 19.36376 | 19355 ft | 387 kts | 229° |
| 2026-04-30 13:05 | 49.52564 | 19.33321 | 19935 ft | 391 kts | 229° |
| 2026-04-30 13:05 | 49.50693 | 19.30253 | 20479 ft | 395 kts | 228° |
| 2026-04-30 13:06 | 49.46897 | 19.24055 | 21560 ft | 401 kts | 228° |
| 2026-04-30 13:06 | 49.44974 | 19.20914 | 22056 ft | 405 kts | 228° |
| 2026-04-30 13:06 | 49.43036 | 19.17756 | 22577 ft | 408 kts | 228° |
| 2026-04-30 13:06 | 49.41087 | 19.14576 | 23105 ft | 411 kts | 228° |
| 2026-04-30 13:07 | 49.39120 | 19.11367 | 23615 ft | 414 kts | 228° |
| 2026-04-30 13:07 | 49.37143 | 19.08137 | 24099 ft | 417 kts | 228° |
| 2026-04-30 13:07 | 49.35144 | 19.04881 | 24542 ft | 420 kts | 228° |
| 2026-04-30 13:07 | 49.33141 | 19.01610 | 24975 ft | 423 kts | 228° |
| 2026-04-30 13:08 | 49.31120 | 18.98315 | 25408 ft | 425 kts | 228° |
| 2026-04-30 13:08 | 49.29089 | 18.95001 | 25804 ft | 427 kts | 228° |
| 2026-04-30 13:08 | 49.27741 | 18.92800 | 26057 ft | 430 kts | 228° |
| 2026-04-30 13:08 | 49.25689 | 18.89452 | 26428 ft | 432 kts | 229° |
| 2026-04-30 13:09 | 49.23803 | 18.85874 | 26797 ft | 433 kts | 236° |
| 2026-04-30 13:09 | 49.22090 | 18.82071 | 27158 ft | 435 kts | 238° |
| 2026-04-30 13:09 | 49.20406 | 18.78220 | 27506 ft | 437 kts | 238° |
| 2026-04-30 13:09 | 49.18697 | 18.74360 | 27831 ft | 439 kts | 238° |
| 2026-04-30 13:10 | 49.16973 | 18.70505 | 28144 ft | 442 kts | 237° |
| 2026-04-30 13:10 | 49.14672 | 18.65397 | 28483 ft | 436 kts | 237° |
| 2026-04-30 13:10 | 49.13512 | 18.62830 | 28462 ft | 432 kts | 237° |
| 2026-04-30 13:11 | 49.10132 | 18.55357 | 28427 ft | 426 kts | 237° |
| 2026-04-30 13:11 | 49.06757 | 18.47912 | 28401 ft | 426 kts | 237° |
| 2026-04-30 13:12 | 49.03378 | 18.40477 | 28402 ft | 427 kts | 237° |
| 2026-04-30 13:12 | 48.99994 | 18.33059 | 28391 ft | 427 kts | 237° |
| 2026-04-30 13:13 | 48.95342 | 18.21591 | 28393 ft | 422 kts | 249° |
| 2026-04-30 13:14 | 48.91915 | 18.09234 | 28382 ft | 422 kts | 250° |
| 2026-04-30 13:14 | 48.88425 | 17.96932 | 28387 ft | 423 kts | 250° |
| 2026-04-30 13:15 | 48.84900 | 17.84621 | 28386 ft | 424 kts | 250° |
| 2026-04-30 13:16 | 48.82544 | 17.76419 | 28382 ft | 424 kts | 250° |
| 2026-04-30 13:16 | 48.80175 | 17.68199 | 28156 ft | 428 kts | 250° |
| 2026-04-30 13:17 | 48.77821 | 17.60065 | 27257 ft | 422 kts | 250° |
| 2026-04-30 13:17 | 48.76644 | 17.55999 | 26603 ft | 420 kts | 249° |
| 2026-04-30 13:17 | 48.74308 | 17.47956 | 25307 ft | 414 kts | 249° |
| 2026-04-30 13:18 | 48.73150 | 17.43982 | 24685 ft | 410 kts | 249° |
| 2026-04-30 13:18 | 48.71562 | 17.35923 | 23538 ft | 389 kts | 273° |
| 2026-04-30 13:18 | 48.71619 | 17.31896 | 23084 ft | 378 kts | 278° |
| 2026-04-30 13:19 | 48.71758 | 17.27959 | 22592 ft | 371 kts | 277° |
| 2026-04-30 13:19 | 48.71540 | 17.24068 | 22058 ft | 374 kts | 260° |
| 2026-04-30 13:19 | 48.70527 | 17.20448 | 21625 ft | 374 kts | 242° |
| 2026-04-30 13:19 | 48.69106 | 17.17167 | 21105 ft | 374 kts | 237° |
| 2026-04-30 13:20 | 48.67604 | 17.13937 | 20595 ft | 374 kts | 237° |
| 2026-04-30 13:20 | 48.66159 | 17.10670 | 20114 ft | 372 kts | 239° |
| 2026-04-30 13:20 | 48.64754 | 17.07399 | 19612 ft | 371 kts | 239° |
| 2026-04-30 13:20 | 48.63321 | 17.04162 | 19130 ft | 369 kts | 238° |
| 2026-04-30 13:21 | 48.61901 | 17.00956 | 18636 ft | 365 kts | 239° |
| 2026-04-30 13:21 | 48.60506 | 16.97769 | 18159 ft | 360 kts | 237° |
| 2026-04-30 13:21 | 48.58766 | 16.95043 | 17450 ft | 364 kts | 213° |
| 2026-04-30 13:22 | 48.54062 | 16.93084 | 16604 ft | 349 kts | 183° |
| 2026-04-30 13:22 | 48.51660 | 16.92687 | 16150 ft | 346 kts | 185° |
| 2026-04-30 13:22 | 48.46925 | 16.91625 | 15256 ft | 342 kts | 187° |
| 2026-04-30 13:23 | 48.44584 | 16.91031 | 14806 ft | 340 kts | 187° |
| 2026-04-30 13:23 | 48.39959 | 16.89822 | 13893 ft | 334 kts | 188° |
| 2026-04-30 13:24 | 48.35440 | 16.88626 | 13061 ft | 326 kts | 188° |
| 2026-04-30 13:24 | 48.31014 | 16.87447 | 12212 ft | 319 kts | 188° |
| 2026-04-30 13:25 | 48.26689 | 16.86296 | 11387 ft | 313 kts | 188° |
| 2026-04-30 13:25 | 48.22416 | 16.85144 | 10133 ft | 322 kts | 188° |
| 2026-04-30 13:26 | 48.16100 | 16.83448 | 8993 ft | 298 kts | 188° |
| 2026-04-30 13:26 | 48.12033 | 16.82333 | 8182 ft | 295 kts | 188° |
| 2026-04-30 13:27 | 48.08036 | 16.81242 | 7414 ft | 291 kts | 188° |
| 2026-04-30 13:28 | 48.02333 | 16.79695 | 6338 ft | 262 kts | 189° |
| 2026-04-30 13:28 | 47.98852 | 16.78727 | 5613 ft | 247 kts | 190° |
| 2026-04-30 13:28 | 47.97194 | 16.78257 | 5399 ft | 238 kts | 192° |
| 2026-04-30 13:29 | 47.94676 | 16.75653 | 4698 ft | 211 kts | 247° |
| 2026-04-30 13:29 | 47.93935 | 16.71658 | 4281 ft | 199 kts | 260° |
| 2026-04-30 13:30 | 47.94736 | 16.66277 | 3489 ft | 177 kts | 319° |
| 2026-04-30 13:31 | 47.96672 | 16.64204 | 3050 ft | 174 kts | 348° |
| 2026-04-30 13:31 | 48.00085 | 16.62835 | 2468 ft | 160 kts | 347° |
| 2026-04-30 13:32 | 48.02060 | 16.62014 | 2068 ft | 139 kts | 345° |
| 2026-04-30 13:32 | 48.03818 | 16.61267 | 1688 ft | 124 kts | 346° |
| 2026-04-30 13:33 | 48.05437 | 16.60587 | 1351 ft | 123 kts | 346° |
| 2026-04-30 13:33 | 48.07066 | 16.59873 | 1016 ft | 116 kts | 347° |
| 2026-04-30 13:34 | 48.07840 | 16.59551 | 820 ft | 115 kts | 347° |
| 2026-04-30 13:34 | 48.09849 | 16.58719 | 622 ft | 51 kts | 343° |
| 2026-04-30 13:35 | 48.10025 | 16.58575 | 612 ft | 22 kts | 308° |
| 2026-04-30 13:35 | 48.10218 | 16.58283 | 609 ft | 20 kts | 345° |
| 2026-04-30 13:36 | 48.10504 | 16.58164 | 614 ft | 22 kts | 342° |
| 2026-04-30 13:36 | 48.10655 | 16.58098 | 611 ft | 23 kts | 345° |
| 2026-04-30 13:36 | 48.10978 | 16.57961 | 615 ft | 25 kts | 345° |
| 2026-04-30 13:37 | 48.11150 | 16.57889 | 608 ft | 26 kts | 344° |
| 2026-04-30 13:37 | 48.11506 | 16.57736 | 617 ft | 26 kts | 344° |
| 2026-04-30 13:38 | 48.11821 | 16.57604 | 618 ft | 12 kts | 341° |
| 2026-04-30 13:38 | 48.11830 | 16.57530 | 619 ft | 13 kts | 255° |
| 2026-04-30 13:38 | 48.11879 | 16.57183 | 615 ft | 18 kts | 317° |
| 2026-04-30 13:39 | 48.11977 | 16.57030 | 608 ft | 8 kts | 22° |
| 2026-04-30 13:39 | 48.11997 | 16.57043 | 608 ft | 0 kts | 25° |